sensor_id;sensor_type;location;lat;lon;timestamp;pressure;altitude;pressure_sealevel;temperature;humidity
9829;BME280;4953;48.952;9.442;2022-12-07T05:01:14;98163.03;;;3.80;nan
9829;BME280;4953;48.952;9.442;2022-12-07T05:03:42;98171.72;;;3.85;nan
9829;BME280;4953;48.952;9.442;2022-12-07T05:06:10;98164.97;;;3.86;nan
9829;BME280;4953;48.952;9.442;2022-12-07T05:08:38;98160.03;;;3.89;nan
9829;BME280;4953;48.952;9.442;2022-12-07T05:11:06;98151.38;;;3.85;nan
9829;BME280;4953;48.952;9.442;2022-12-07T05:13:33;98164.97;;;3.86;nan
9829;BME280;4953;48.952;9.442;2022-12-07T05:16:00;98166.78;;;3.88;nan
9829;BME280;4953;48.952;9.442;2022-12-07T05:18:28;98163.34;;;3.88;nan
9829;BME280;4953;48.952;9.442;2022-12-07T05:20:55;98166.50;;;3.82;nan
9829;BME280;4953;48.952;9.442;2022-12-07T05:23:22;98165.81;;;3.86;nan
9829;BME280;4953;48.952;9.442;2022-12-07T05:25:50;98166.56;;;3.84;nan
9829;BME280;4953;48.952;9.442;2022-12-07T05:28:16;98159.06;;;3.87;nan
9829;BME280;4953;48.952;9.442;2022-12-07T05:30:43;98155.47;;;3.82;nan
9829;BME280;4953;48.952;9.442;2022-12-07T05:33:10;98152.44;;;3.71;nan
9829;BME280;4953;48.952;9.442;2022-12-07T05:35:39;98149.38;;;3.78;nan
9829;BME280;4953;48.952;9.442;2022-12-07T05:38:06;98149.75;;;3.87;nan
9829;BME280;4953;48.952;9.442;2022-12-07T05:40:33;98157.16;;;3.81;nan
9829;BME280;4953;48.952;9.442;2022-12-07T05:43:00;98154.72;;;3.84;nan
9829;BME280;4953;48.952;9.442;2022-12-07T05:45:26;98158.19;;;3.86;nan
9829;BME280;4953;48.952;9.442;2022-12-07T05:47:53;98163.22;;;3.85;nan
9829;BME280;4953;48.952;9.442;2022-12-07T05:50:20;98159.94;;;3.87;nan
9829;BME280;4953;48.952;9.442;2022-12-07T05:52:49;98154.84;;;3.87;nan
9829;BME280;4953;48.952;9.442;2022-12-07T05:55:16;98148.78;;;3.84;nan
9829;BME280;4953;48.952;9.442;2022-12-07T05:57:43;98163.22;;;3.85;nan
9829;BME280;4953;48.952;9.442;2022-12-07T06:00:30;98157.50;;;3.89;nan
9829;BME280;4953;48.952;9.442;2022-12-07T06:02:56;98157.69;;;3.93;nan
9829;BME280;4953;48.952;9.442;2022-12-07T06:05:23;98160.34;;;3.96;nan
9829;BME280;4953;48.952;9.442;2022-12-07T06:07:52;98162.03;;;3.96;nan
9829;BME280;4953;48.952;9.442;2022-12-07T06:10:19;98154.56;;;3.99;nan
9829;BME280;4953;48.952;9.442;2022-12-07T06:12:46;98154.56;;;3.99;nan
9829;BME280;4953;48.952;9.442;2022-12-07T06:15:12;98153.81;;;4.01;nan
9829;BME280;4953;48.952;9.442;2022-12-07T06:17:39;98156.19;;;3.98;nan
9829;BME280;4953;48.952;9.442;2022-12-07T06:20:07;98151.22;;;4.00;nan
9829;BME280;4953;48.952;9.442;2022-12-07T06:22:36;98153.81;;;4.01;nan
9829;BME280;4953;48.952;9.442;2022-12-07T06:25:06;98165.72;;;4.02;nan
9829;BME280;4953;48.952;9.442;2022-12-07T06:27:34;98167.53;;;4.05;nan
9829;BME280;4953;48.952;9.442;2022-12-07T06:30:02;98173.22;;;3.99;nan
9829;BME280;4953;48.952;9.442;2022-12-07T06:32:32;98166.47;;;4.00;nan
9829;BME280;4953;48.952;9.442;2022-12-07T06:34:59;98164.09;;;4.04;nan
9829;BME280;4953;48.952;9.442;2022-12-07T06:37:26;98166.19;;;3.94;nan
9829;BME280;4953;48.952;9.442;2022-12-07T06:39:53;98169.47;;;3.91;nan
9829;BME280;4953;48.952;9.442;2022-12-07T06:42:22;98173.94;;;3.97;nan
9829;BME280;4953;48.952;9.442;2022-12-07T06:44:49;98171.13;;;3.91;nan
9829;BME280;4953;48.952;9.442;2022-12-07T06:47:16;98167.91;;;3.95;nan
9829;BME280;4953;48.952;9.442;2022-12-07T06:49:43;98169.72;;;3.97;nan
9829;BME280;4953;48.952;9.442;2022-12-07T06:52:09;98170.53;;;3.96;nan
9829;BME280;4953;48.952;9.442;2022-12-07T06:54:36;98179.31;;;4.03;nan
9829;BME280;4953;48.952;9.442;2022-12-07T06:57:03;98171.56;;;4.00;nan
9829;BME280;4953;48.952;9.442;2022-12-07T06:59:32;98169.13;;;4.03;nan
9829;BME280;4953;48.952;9.442;2022-12-07T07:01:59;98174.75;;;3.96;nan
9829;BME280;4953;48.952;9.442;2022-12-07T07:04:26;98184.25;;;3.81;nan
9829;BME280;4953;48.952;9.442;2022-12-07T07:06:52;98181.81;;;3.84;nan
9829;BME280;4953;48.952;9.442;2022-12-07T07:09:19;98184.66;;;3.90;nan
9829;BME280;4953;48.952;9.442;2022-12-07T07:11:46;98182.75;;;3.86;nan
9829;BME280;4953;48.952;9.442;2022-12-07T07:14:13;98180.91;;;3.82;nan
9829;BME280;4953;48.952;9.442;2022-12-07T07:16:45;98174.94;;;3.81;nan
9829;BME280;4953;48.952;9.442;2022-12-07T07:19:12;98176.44;;;3.78;nan
9829;BME280;4953;48.952;9.442;2022-12-07T07:21:39;98179.78;;;3.76;nan
9829;BME280;4953;48.952;9.442;2022-12-07T07:24:07;98189.97;;;3.76;nan
9829;BME280;4953;48.952;9.442;2022-12-07T07:26:34;98192.00;;;3.84;nan
9829;BME280;4953;48.952;9.442;2022-12-07T07:29:01;98191.25;;;3.86;nan
9829;BME280;4953;48.952;9.442;2022-12-07T07:31:28;98186.81;;;3.63;nan
9829;BME280;4953;48.952;9.442;2022-12-07T07:33:56;98194.31;;;3.60;nan
9829;BME280;4953;48.952;9.442;2022-12-07T07:36:24;98186.22;;;3.68;nan
9829;BME280;4953;48.952;9.442;2022-12-07T07:38:51;98192.44;;;3.75;nan
9829;BME280;4953;48.952;9.442;2022-12-07T07:41:18;98188.47;;;3.62;nan
9829;BME280;4953;48.952;9.442;2022-12-07T07:43:45;98190.59;;;3.53;nan
9829;BME280;4953;48.952;9.442;2022-12-07T07:46:12;98191.41;;;3.52;nan
9829;BME280;4953;48.952;9.442;2022-12-07T07:48:39;98195.16;;;3.60;nan
9829;BME280;4953;48.952;9.442;2022-12-07T07:51:08;98192.88;;;3.66;nan
9829;BME280;4953;48.952;9.442;2022-12-07T07:53:35;98199.13;;;3.73;nan
9829;BME280;4953;48.952;9.442;2022-12-07T07:56:03;98192.25;;;3.70;nan
9829;BME280;4953;48.952;9.442;2022-12-07T07:58:30;98198.41;;;3.75;nan
9829;BME280;4953;48.952;9.442;2022-12-07T08:01:03;98197.81;;;3.81;nan
9829;BME280;4953;48.952;9.442;2022-12-07T08:03:30;98200.56;;;3.86;nan
9829;BME280;4953;48.952;9.442;2022-12-07T08:05:57;98202.09;;;3.82;nan
9829;BME280;4953;48.952;9.442;2022-12-07T08:08:25;98202.97;;;3.83;nan
9829;BME280;4953;48.952;9.442;2022-12-07T08:10:52;98208.25;;;3.87;nan
9829;BME280;4953;48.952;9.442;2022-12-07T08:13:19;98211.53;;;3.85;nan
9829;BME280;4953;48.952;9.442;2022-12-07T08:15:48;98210.25;;;3.75;nan
9829;BME280;4953;48.952;9.442;2022-12-07T08:18:15;98204.34;;;3.76;nan
9829;BME280;4953;48.952;9.442;2022-12-07T08:20:42;98209.31;;;3.73;nan
9829;BME280;4953;48.952;9.442;2022-12-07T08:23:10;98208.09;;;3.47;nan
9829;BME280;4953;48.952;9.442;2022-12-07T08:25:39;98205.47;;;3.45;nan
9829;BME280;4953;48.952;9.442;2022-12-07T08:28:07;98218.41;;;3.50;nan
9829;BME280;4953;48.952;9.442;2022-12-07T08:30:34;98207.94;;;3.44;nan
9829;BME280;4953;48.952;9.442;2022-12-07T08:33:01;98212.03;;;3.40;nan
9829;BME280;4953;48.952;9.442;2022-12-07T08:35:28;98215.38;;;3.39;nan
9829;BME280;4953;48.952;9.442;2022-12-07T08:37:55;98212.03;;;3.40;nan
9829;BME280;4953;48.952;9.442;2022-12-07T08:40:23;98215.72;;;3.47;nan
9829;BME280;4953;48.952;9.442;2022-12-07T08:42:52;98213.69;;;3.40;nan
9829;BME280;4953;48.952;9.442;2022-12-07T08:45:21;98214.19;;;3.33;nan
9829;BME280;4953;48.952;9.442;2022-12-07T08:47:54;98217.25;;;3.43;nan
9829;BME280;4953;48.952;9.442;2022-12-07T08:50:24;98216.81;;;3.34;nan
9829;BME280;4953;48.952;9.442;2022-12-07T08:52:55;98223.06;;;3.41;nan
9829;BME280;4953;48.952;9.442;2022-12-07T08:55:23;98221.97;;;3.36;nan
9829;BME280;4953;48.952;9.442;2022-12-07T08:57:53;98221.16;;;3.37;nan
9829;BME280;4953;48.952;9.442;2022-12-07T09:00:20;98224.59;;;3.37;nan
9829;BME280;4953;48.952;9.442;2022-12-07T09:02:47;98223.84;;;3.22;nan
9829;BME280;4953;48.952;9.442;2022-12-07T09:05:15;98219.88;;;3.27;nan
9829;BME280;4953;48.952;9.442;2022-12-07T09:07:45;98216.59;;;3.30;nan
9829;BME280;4953;48.952;9.442;2022-12-07T09:10:12;98215.88;;;3.32;nan
9829;BME280;4953;48.952;9.442;2022-12-07T09:12:39;98213.63;;;3.38;nan
9829;BME280;4953;48.952;9.442;2022-12-07T09:15:08;98215.06;;;3.33;nan
9829;BME280;4953;48.952;9.442;2022-12-07T09:17:36;98214.56;;;3.40;nan
9829;BME280;4953;48.952;9.442;2022-12-07T09:20:04;98214.69;;;3.43;nan
9829;BME280;4953;48.952;9.442;2022-12-07T09:22:32;98213.97;;;3.46;nan
9829;BME280;4953;48.952;9.442;2022-12-07T09:25:00;98221.69;;;3.47;nan
9829;BME280;4953;48.952;9.442;2022-12-07T09:27:28;98213.41;;;3.34;nan
9829;BME280;4953;48.952;9.442;2022-12-07T09:29:55;98216.25;;;3.40;nan
9829;BME280;4953;48.952;9.442;2022-12-07T09:32:23;98214.94;;;3.48;nan
9829;BME280;4953;48.952;9.442;2022-12-07T09:34:50;98220.03;;;3.48;nan
9829;BME280;4953;48.952;9.442;2022-12-07T09:37:17;98214.19;;;3.51;nan
9829;BME280;4953;48.952;9.442;2022-12-07T09:39:44;98216.06;;;3.55;nan
9829;BME280;4953;48.952;9.442;2022-12-07T09:42:27;98213.59;;;3.56;nan
9829;BME280;4953;48.952;9.442;2022-12-07T09:44:55;98216.31;;;3.59;nan
9829;BME280;4953;48.952;9.442;2022-12-07T09:47:25;98211.16;;;3.58;nan
9829;BME280;4953;48.952;9.442;2022-12-07T09:49:55;98202.13;;;3.64;nan
9829;BME280;4953;48.952;9.442;2022-12-07T09:52:28;98210.41;;;3.60;nan
9829;BME280;4953;48.952;9.442;2022-12-07T09:54:55;98199.88;;;3.70;nan
9829;BME280;4953;48.952;9.442;2022-12-07T09:57:29;98197.97;;;3.66;nan
9829;BME280;4953;48.952;9.442;2022-12-07T09:59:59;98197.34;;;3.70;nan
9829;BME280;4953;48.952;9.442;2022-12-07T10:02:37;98193.72;;;3.85;nan
9829;BME280;4953;48.952;9.442;2022-12-07T10:05:13;98189.44;;;3.84;nan
9829;BME280;4953;48.952;9.442;2022-12-07T10:07:41;98186.63;;;3.78;nan
9829;BME280;4953;48.952;9.442;2022-12-07T10:10:15;98180.59;;;3.75;nan
9829;BME280;4953;48.952;9.442;2022-12-07T10:12:59;98180.47;;;3.72;nan
9829;BME280;4953;48.952;9.442;2022-12-07T10:15:50;98182.44;;;3.78;nan
9829;BME280;4953;48.952;9.442;2022-12-07T10:18:29;98186.84;;;3.82;nan
9829;BME280;4953;48.952;9.442;2022-12-07T10:21:08;98185.84;;;3.79;nan
9829;BME280;4953;48.952;9.442;2022-12-07T10:23:38;98181.63;;;3.79;nan
9829;BME280;4953;48.952;9.442;2022-12-07T10:26:26;98180.91;;;3.82;nan
9829;BME280;4953;48.952;9.442;2022-12-07T10:28:55;98180.97;;;3.83;nan
9829;BME280;4953;48.952;9.442;2022-12-07T10:31:23;98178.03;;;3.93;nan
9829;BME280;4953;48.952;9.442;2022-12-07T10:33:53;98179.50;;;3.88;nan
9829;BME280;4953;48.952;9.442;2022-12-07T10:36:24;98183.13;;;3.93;nan
9829;BME280;4953;48.952;9.442;2022-12-07T10:38:59;98171.66;;;3.84;nan
9829;BME280;4953;48.952;9.442;2022-12-07T10:41:26;98169.97;;;3.84;nan
9829;BME280;4953;48.952;9.442;2022-12-07T10:43:56;98162.75;;;3.74;nan
9829;BME280;4953;48.952;9.442;2022-12-07T10:46:58;98163.56;;;3.73;nan
9829;BME280;4953;48.952;9.442;2022-12-07T10:53:11;98151.44;;;3.87;nan
9829;BME280;4953;48.952;9.442;2022-12-07T10:56:27;98147.78;;;3.80;nan
9829;BME280;4953;48.952;9.442;2022-12-07T10:59:19;98152.81;;;3.79;nan
9829;BME280;4953;48.952;9.442;2022-12-07T11:01:58;98150.91;;;3.74;nan
9829;BME280;4953;48.952;9.442;2022-12-07T11:04:41;98153.44;;;3.74;nan
9829;BME280;4953;48.952;9.442;2022-12-07T11:07:20;98139.88;;;3.74;nan
9829;BME280;4953;48.952;9.442;2022-12-07T11:10:09;98142.53;;;3.77;nan
9829;BME280;4953;48.952;9.442;2022-12-07T11:13:04;98133.91;;;3.73;nan
9829;BME280;4953;48.952;9.442;2022-12-07T11:15:54;98136.81;;;3.81;nan
9829;BME280;4953;48.952;9.442;2022-12-07T11:18:28;98131.31;;;3.72;nan
9829;BME280;4953;48.952;9.442;2022-12-07T11:21:12;98134.25;;;3.81;nan
9829;BME280;4953;48.952;9.442;2022-12-07T11:23:54;98131.78;;;3.83;nan
9829;BME280;4953;48.952;9.442;2022-12-07T11:26:46;98128.31;;;3.81;nan
9829;BME280;4953;48.952;9.442;2022-12-07T11:29:44;98126.97;;;3.89;nan
9829;BME280;4953;48.952;9.442;2022-12-07T11:32:22;98126.81;;;3.86;nan
9829;BME280;4953;48.952;9.442;2022-12-07T11:35:05;98123.75;;;3.93;nan
9829;BME280;4953;48.952;9.442;2022-12-07T11:37:38;98121.91;;;3.89;nan
9829;BME280;4953;48.952;9.442;2022-12-07T11:40:18;98118.59;;;3.91;nan
9829;BME280;4953;48.952;9.442;2022-12-07T11:42:58;98111.44;;;4.02;nan
9829;BME280;4953;48.952;9.442;2022-12-07T11:45:29;98120.59;;;3.98;nan
9829;BME280;4953;48.952;9.442;2022-12-07T11:48:01;98114.22;;;4.08;nan
9829;BME280;4953;48.952;9.442;2022-12-07T11:50:37;98112.88;;;4.16;nan
9829;BME280;4953;48.952;9.442;2022-12-07T11:53:17;98114.63;;;4.17;nan
9829;BME280;4953;48.952;9.442;2022-12-07T11:55:51;98109.69;;;4.20;nan
9829;BME280;4953;48.952;9.442;2022-12-07T11:58:36;98104.72;;;4.23;nan
9829;BME280;4953;48.952;9.442;2022-12-07T12:01:18;98099.91;;;4.29;nan
9829;BME280;4953;48.952;9.442;2022-12-07T12:03:52;98095.75;;;4.31;nan
9829;BME280;4953;48.952;9.442;2022-12-07T12:06:21;98088.53;;;4.21;nan
9829;BME280;4953;48.952;9.442;2022-12-07T12:08:56;98086.97;;;4.25;nan
9829;BME280;4953;48.952;9.442;2022-12-07T12:11:47;98081.28;;;4.30;nan
9829;BME280;4953;48.952;9.442;2022-12-07T12:14:40;98087.91;;;4.27;nan
9829;BME280;4953;48.952;9.442;2022-12-07T12:17:47;98084.63;;;4.29;nan
9829;BME280;4953;48.952;9.442;2022-12-07T12:20:23;98082.81;;;4.27;nan
9829;BME280;4953;48.952;9.442;2022-12-07T12:23:00;98082.16;;;4.31;nan
9829;BME280;4953;48.952;9.442;2022-12-07T12:25:38;98087.38;;;4.34;nan
9829;BME280;4953;48.952;9.442;2022-12-07T12:28:23;98081.66;;;4.40;nan
9829;BME280;4953;48.952;9.442;2022-12-07T12:31:07;98082.22;;;4.32;nan
9829;BME280;4953;48.952;9.442;2022-12-07T12:33:37;98087.59;;;4.19;nan
9829;BME280;4953;48.952;9.442;2022-12-07T12:36:22;98082.75;;;4.25;nan
9829;BME280;4953;48.952;9.442;2022-12-07T12:38:52;98082.63;;;4.22;nan
9829;BME280;4953;48.952;9.442;2022-12-07T12:41:58;98078.53;;;4.26;nan
9829;BME280;4953;48.952;9.442;2022-12-07T12:45:17;98074.88;;;4.19;nan
9829;BME280;4953;48.952;9.442;2022-12-07T12:47:55;98080.31;;;4.28;nan
9829;BME280;4953;48.952;9.442;2022-12-07T12:50:29;98075.44;;;4.12;nan
9829;BME280;4953;48.952;9.442;2022-12-07T12:53:20;98069.41;;;4.10;nan
9829;BME280;4953;48.952;9.442;2022-12-07T12:56:32;98075.94;;;4.24;nan
9829;BME280;4953;48.952;9.442;2022-12-07T12:59:23;98070.50;;;4.17;nan
9829;BME280;4953;48.952;9.442;2022-12-07T13:01:54;98067.97;;;4.17;nan
9829;BME280;4953;48.952;9.442;2022-12-07T13:04:52;98070.03;;;4.25;nan
9829;BME280;4953;48.952;9.442;2022-12-07T13:07:54;98062.72;;;4.12;nan
9829;BME280;4953;48.952;9.442;2022-12-07T13:10:45;98063.19;;;4.03;nan
9829;BME280;4953;48.952;9.442;2022-12-07T13:13:35;98057.75;;;3.96;nan
9829;BME280;4953;48.952;9.442;2022-12-07T13:16:40;98053.47;;;3.95;nan
9829;BME280;4953;48.952;9.442;2022-12-07T13:19:56;98050.88;;;3.93;nan
9829;BME280;4953;48.952;9.442;2022-12-07T13:22:41;98049.31;;;3.97;nan
9829;BME280;4953;48.952;9.442;2022-12-07T13:25:17;98047.06;;;4.03;nan
9829;BME280;4953;48.952;9.442;2022-12-07T13:27:55;98044.69;;;4.08;nan
9829;BME280;4953;48.952;9.442;2022-12-07T13:30:24;98049.34;;;4.18;nan
9829;BME280;4953;48.952;9.442;2022-12-07T13:32:58;98049.25;;;4.15;nan
9829;BME280;4953;48.952;9.442;2022-12-07T13:35:34;98046.28;;;4.25;nan
9829;BME280;4953;48.952;9.442;2022-12-07T13:38:14;98049.25;;;4.15;nan
9829;BME280;4953;48.952;9.442;2022-12-07T13:40:59;98044.22;;;4.16;nan
9829;BME280;4953;48.952;9.442;2022-12-07T13:43:26;98044.78;;;4.09;nan
9829;BME280;4953;48.952;9.442;2022-12-07T13:45:56;98041.28;;;4.07;nan
9829;BME280;4953;48.952;9.442;2022-12-07T13:48:35;98042.09;;;4.06;nan
9829;BME280;4953;48.952;9.442;2022-12-07T13:51:04;98043.34;;;4.16;nan
9829;BME280;4953;48.952;9.442;2022-12-07T13:53:31;98043.59;;;4.22;nan
9829;BME280;4953;48.952;9.442;2022-12-07T13:56:00;98034.09;;;4.18;nan
9829;BME280;4953;48.952;9.442;2022-12-07T13:58:31;98037.94;;;4.08;nan
9829;BME280;4953;48.952;9.442;2022-12-07T14:01:00;98031.44;;;4.15;nan
9829;BME280;4953;48.952;9.442;2022-12-07T14:03:31;98039.94;;;4.15;nan
9829;BME280;4953;48.952;9.442;2022-12-07T14:06:25;98033.59;;;4.26;nan
9829;BME280;4953;48.952;9.442;2022-12-07T14:09:17;98040.00;;;4.17;nan
9829;BME280;4953;48.952;9.442;2022-12-07T14:11:47;98039.28;;;4.19;nan
9829;BME280;4953;48.952;9.442;2022-12-07T14:14:19;98036.63;;;4.18;nan
9829;BME280;4953;48.952;9.442;2022-12-07T14:16:58;98044.28;;;4.18;nan
9829;BME280;4953;48.952;9.442;2022-12-07T14:19:48;98040.31;;;4.24;nan
9829;BME280;4953;48.952;9.442;2022-12-07T14:22:32;98038.88;;;4.10;nan
9829;BME280;4953;48.952;9.442;2022-12-07T14:25:21;98043.41;;;4.17;nan
9829;BME280;4953;48.952;9.442;2022-12-07T14:27:55;98036.47;;;4.13;nan
9829;BME280;4953;48.952;9.442;2022-12-07T14:30:25;98040.25;;;4.23;nan
9829;BME280;4953;48.952;9.442;2022-12-07T14:32:57;98036.31;;;4.29;nan
9829;BME280;4953;48.952;9.442;2022-12-07T14:35:28;98028.28;;;4.20;nan
9829;BME280;4953;48.952;9.442;2022-12-07T14:37:56;98037.66;;;4.21;nan
9829;BME280;4953;48.952;9.442;2022-12-07T14:40:24;98035.28;;;4.26;nan
9829;BME280;4953;48.952;9.442;2022-12-07T14:42:57;98031.22;;;4.29;nan
9829;BME280;4953;48.952;9.442;2022-12-07T14:45:26;98033.97;;;4.36;nan
9829;BME280;4953;48.952;9.442;2022-12-07T14:47:53;98028.78;;;4.32;nan
9829;BME280;4953;48.952;9.442;2022-12-07T14:50:21;98022.19;;;4.38;nan
9829;BME280;4953;48.952;9.442;2022-12-07T14:52:54;98028.09;;;4.37;nan
9829;BME280;4953;48.952;9.442;2022-12-07T14:55:25;98033.75;;;4.29;nan
9829;BME280;4953;48.952;9.442;2022-12-07T14:57:52;98033.94;;;4.34;nan
9829;BME280;4953;48.952;9.442;2022-12-07T15:00:22;98036.97;;;4.25;nan
9829;BME280;4953;48.952;9.442;2022-12-07T15:02:50;98036.31;;;4.29;nan
9829;BME280;4953;48.952;9.442;2022-12-07T15:05:18;98035.28;;;4.26;nan
9829;BME280;4953;48.952;9.442;2022-12-07T15:07:47;98038.59;;;4.23;nan
9829;BME280;4953;48.952;9.442;2022-12-07T15:10:18;98040.81;;;4.16;nan
9829;BME280;4953;48.952;9.442;2022-12-07T15:12:46;98035.16;;;4.23;nan
9829;BME280;4953;48.952;9.442;2022-12-07T15:15:13;98032.50;;;4.20;nan
9829;BME280;4953;48.952;9.442;2022-12-07T15:17:41;98040.19;;;4.21;nan
9829;BME280;4953;48.952;9.442;2022-12-07T15:20:13;98032.84;;;4.29;nan
9829;BME280;4953;48.952;9.442;2022-12-07T15:22:40;98033.75;;;4.29;nan
9829;BME280;4953;48.952;9.442;2022-12-07T15:25:12;98036.22;;;4.28;nan
9829;BME280;4953;48.952;9.442;2022-12-07T15:27:41;98029.31;;;4.25;nan
9829;BME280;4953;48.952;9.442;2022-12-07T15:30:09;98034.78;;;4.14;nan
9829;BME280;4953;48.952;9.442;2022-12-07T15:32:36;98040.63;;;4.11;nan
9829;BME280;4953;48.952;9.442;2022-12-07T15:35:03;98034.53;;;4.08;nan
9829;BME280;4953;48.952;9.442;2022-12-07T15:37:30;98030.69;;;4.17;nan
9829;BME280;4953;48.952;9.442;2022-12-07T15:39:57;98034.41;;;4.25;nan
9829;BME280;4953;48.952;9.442;2022-12-07T15:42:24;98040.59;;;4.30;nan
9829;BME280;4953;48.952;9.442;2022-12-07T15:44:53;98034.91;;;4.38;nan
9829;BME280;4953;48.952;9.442;2022-12-07T15:47:31;98041.81;;;4.40;nan
9829;BME280;4953;48.952;9.442;2022-12-07T15:49:58;98035.72;;;4.37;nan
9829;BME280;4953;48.952;9.442;2022-12-07T15:52:26;98031.88;;;4.46;nan
9829;BME280;4953;48.952;9.442;2022-12-07T15:54:53;98022.63;;;4.48;nan
9829;BME280;4953;48.952;9.442;2022-12-07T15:57:20;98021.03;;;4.50;nan
9829;BME280;4953;48.952;9.442;2022-12-07T15:59:47;98029.69;;;4.55;nan
9829;BME280;4953;48.952;9.442;2022-12-07T16:02:15;98020.06;;;4.48;nan
9829;BME280;4953;48.952;9.442;2022-12-07T16:04:42;98018.97;;;4.42;nan
9829;BME280;4953;48.952;9.442;2022-12-07T16:07:10;98021.63;;;4.24;nan
9829;BME280;4953;48.952;9.442;2022-12-07T16:09:40;98020.69;;;4.01;nan
9829;BME280;4953;48.952;9.442;2022-12-07T16:12:07;98017.88;;;3.95;nan
9829;BME280;4953;48.952;9.442;2022-12-07T16:14:34;98020.91;;;3.86;nan
9829;BME280;4953;48.952;9.442;2022-12-07T16:17:02;98010.88;;;3.89;nan
9829;BME280;4953;48.952;9.442;2022-12-07T16:19:31;98012.16;;;3.80;nan
9829;BME280;4953;48.952;9.442;2022-12-07T16:21:58;98014.16;;;3.67;nan
9829;BME280;4953;48.952;9.442;2022-12-07T16:24:26;98012.38;;;3.65;nan
9829;BME280;4953;48.952;9.442;2022-12-07T16:26:53;98009.81;;;3.65;nan
9829;BME280;4953;48.952;9.442;2022-12-07T16:29:22;98004.91;;;3.68;nan
9829;BME280;4953;48.952;9.442;2022-12-07T16:31:51;98005.66;;;3.67;nan
9829;BME280;4953;48.952;9.442;2022-12-07T16:34:18;98008.16;;;3.65;nan
9829;BME280;4953;48.952;9.442;2022-12-07T16:36:47;98003.47;;;3.55;nan
9829;BME280;4953;48.952;9.442;2022-12-07T16:39:14;98002.19;;;3.65;nan
9829;BME280;4953;48.952;9.442;2022-12-07T16:41:41;97994.94;;;3.53;nan
9829;BME280;4953;48.952;9.442;2022-12-07T16:44:11;97985.63;;;3.54;nan
9829;BME280;4953;48.952;9.442;2022-12-07T16:46:39;97990.53;;;3.49;nan
9829;BME280;4953;48.952;9.442;2022-12-07T16:49:11;97992.09;;;3.47;nan
9829;BME280;4953;48.952;9.442;2022-12-07T16:51:38;97985.38;;;3.47;nan
9829;BME280;4953;48.952;9.442;2022-12-07T16:54:06;97983.09;;;3.54;nan
9829;BME280;4953;48.952;9.442;2022-12-07T16:56:33;97979.09;;;3.59;nan
9829;BME280;4953;48.952;9.442;2022-12-07T16:59:00;97978.59;;;3.67;nan
9829;BME280;4953;48.952;9.442;2022-12-07T17:01:27;97977.25;;;3.56;nan
9829;BME280;4953;48.952;9.442;2022-12-07T17:03:56;97969.09;;;3.63;nan
9829;BME280;4953;48.952;9.442;2022-12-07T17:06:27;97958.34;;;3.69;nan
9829;BME280;4953;48.952;9.442;2022-12-07T17:08:54;97967.13;;;3.77;nan
9829;BME280;4953;48.952;9.442;2022-12-07T17:11:27;97962.88;;;3.57;nan
9829;BME280;4953;48.952;9.442;2022-12-07T17:13:54;97962.97;;;3.58;nan
9829;BME280;4953;48.952;9.442;2022-12-07T17:16:39;97967.78;;;3.52;nan
9829;BME280;4953;48.952;9.442;2022-12-07T17:19:08;97962.88;;;3.57;nan
9829;BME280;4953;48.952;9.442;2022-12-07T17:21:36;97971.75;;;3.66;nan
9829;BME280;4953;48.952;9.442;2022-12-07T17:24:06;97967.38;;;3.62;nan
9829;BME280;4953;48.952;9.442;2022-12-07T17:26:35;97970.25;;;3.70;nan
9829;BME280;4953;48.952;9.442;2022-12-07T17:29:04;97978.31;;;3.81;nan
9829;BME280;4953;48.952;9.442;2022-12-07T17:31:31;97979.34;;;3.86;nan
9829;BME280;4953;48.952;9.442;2022-12-07T17:33:58;97973.19;;;3.79;nan
9829;BME280;4953;48.952;9.442;2022-12-07T17:36:29;97969.50;;;3.72;nan
9829;BME280;4953;48.952;9.442;2022-12-07T17:38:57;97972.84;;;3.71;nan
9829;BME280;4953;48.952;9.442;2022-12-07T17:41:26;97971.84;;;3.68;nan
9829;BME280;4953;48.952;9.442;2022-12-07T17:44:16;97977.28;;;3.77;nan
9829;BME280;4953;48.952;9.442;2022-12-07T17:46:45;97969.19;;;3.86;nan
9829;BME280;4953;48.952;9.442;2022-12-07T17:49:12;97968.53;;;3.90;nan
9829;BME280;4953;48.952;9.442;2022-12-07T17:51:39;97954.84;;;3.88;nan
9829;BME280;4953;48.952;9.442;2022-12-07T17:54:23;97956.97;;;3.77;nan
9829;BME280;4953;48.952;9.442;2022-12-07T17:56:50;97956.91;;;3.75;nan
9829;BME280;4953;48.952;9.442;2022-12-07T17:59:19;97957.66;;;3.73;nan
9829;BME280;4953;48.952;9.442;2022-12-07T18:01:46;97964.28;;;3.69;nan
9829;BME280;4953;48.952;9.442;2022-12-07T18:04:13;97956.50;;;3.66;nan
9829;BME280;4953;48.952;9.442;2022-12-07T18:06:40;97960.88;;;3.69;nan
9829;BME280;4953;48.952;9.442;2022-12-07T18:09:08;97959.38;;;3.74;nan
9829;BME280;4953;48.952;9.442;2022-12-07T18:11:35;97951.97;;;3.79;nan
9829;BME280;4953;48.952;9.442;2022-12-07T18:14:03;97964.00;;;3.83;nan
9829;BME280;4953;48.952;9.442;2022-12-07T18:16:33;97961.59;;;3.66;nan
9829;BME280;4953;48.952;9.442;2022-12-07T18:19:01;97960.06;;;3.70;nan
9829;BME280;4953;48.952;9.442;2022-12-07T18:21:30;97966.94;;;3.72;nan
9829;BME280;4953;48.952;9.442;2022-12-07T18:24:00;97964.09;;;3.86;nan
9829;BME280;4953;48.952;9.442;2022-12-07T18:26:29;97965.41;;;3.97;nan
9829;BME280;4953;48.952;9.442;2022-12-07T18:28:58;97969.78;;;3.99;nan
9829;BME280;4953;48.952;9.442;2022-12-07T18:31:26;97966.22;;;3.96;nan
9829;BME280;4953;48.952;9.442;2022-12-07T18:33:59;97979.94;;;3.99;nan
9829;BME280;4953;48.952;9.442;2022-12-07T18:36:27;97969.69;;;3.98;nan
9829;BME280;4953;48.952;9.442;2022-12-07T18:38:54;97970.38;;;3.94;nan
9829;BME280;4953;48.952;9.442;2022-12-07T18:41:21;97963.06;;;4.01;nan
9829;BME280;4953;48.952;9.442;2022-12-07T18:43:48;97966.72;;;4.08;nan
9829;BME280;4953;48.952;9.442;2022-12-07T18:46:17;97963.63;;;4.15;nan
9829;BME280;4953;48.952;9.442;2022-12-07T18:48:45;97966.22;;;4.17;nan
9829;BME280;4953;48.952;9.442;2022-12-07T18:51:17;97963.94;;;4.02;nan
9829;BME280;4953;48.952;9.442;2022-12-07T18:53:45;97968.09;;;4.00;nan
9829;BME280;4953;48.952;9.442;2022-12-07T18:56:15;97968.97;;;3.80;nan
9829;BME280;4953;48.952;9.442;2022-12-07T18:58:47;97959.31;;;3.72;nan
9829;BME280;4953;48.952;9.442;2022-12-07T19:01:32;97963.28;;;3.87;nan
9829;BME280;4953;48.952;9.442;2022-12-07T19:04:01;97949.19;;;3.93;nan
9829;BME280;4953;48.952;9.442;2022-12-07T19:06:30;97950.22;;;3.98;nan
9829;BME280;4953;48.952;9.442;2022-12-07T19:08:57;97952.16;;;4.04;nan
9829;BME280;4953;48.952;9.442;2022-12-07T19:11:27;97946.19;;;4.03;nan
9829;BME280;4953;48.952;9.442;2022-12-07T19:14:14;97949.06;;;4.11;nan
9829;BME280;4953;48.952;9.442;2022-12-07T19:16:43;97946.69;;;4.16;nan
9829;BME280;4953;48.952;9.442;2022-12-07T19:19:11;97940.72;;;4.15;nan
9829;BME280;4953;48.952;9.442;2022-12-07T19:21:39;97943.28;;;4.15;nan
9829;BME280;4953;48.952;9.442;2022-12-07T19:24:07;97946.50;;;4.11;nan
9829;BME280;4953;48.952;9.442;2022-12-07T19:26:34;97944.78;;;4.10;nan
9829;BME280;4953;48.952;9.442;2022-12-07T19:29:01;97946.75;;;4.17;nan